Terminal Aerodrome Forecast
Issued by NWS

Current Version | Previous Version | Graphics & Text | Print | Product List | Glossary On
Versions: 1 2 3 4 5 6 7 8 9 10 11 12 13 14 15 16 17 18 19 20 21 22
000
FTUS41 KRNK 252320
TAFLWB
TAF
KLWB 252320Z 2600/2624 VRB03KT P6SM SKC
     FM261000 00000KT 3SM BR FEW003 SCT250
      TEMPO 2610/2612 1SM BR BKN003
     FM261200 00000KT P6SM SCT040=

USA.gov is the U.S. government's official web portal to all federal, state and local government web resources and services.